createdAt,value
2019-03-12T00:01:03.160Z,100.00
2019-03-12T00:16:05.711Z,100.00
2019-03-12T00:31:08.355Z,100.00
2019-03-12T00:46:11.072Z,100.00
2019-03-12T01:01:13.625Z,100.00
2019-03-12T01:16:17.140Z,100.00
2019-03-12T01:31:20.969Z,100.00
2019-03-12T01:46:23.801Z,100.00
2019-03-12T02:01:26.614Z,100.00
2019-03-12T02:16:30.453Z,100.00
2019-03-12T02:31:33.055Z,100.00
2019-03-12T02:46:35.646Z,100.00
2019-03-12T03:01:39.948Z,100.00
2019-03-12T03:16:42.560Z,100.00
2019-03-12T03:31:45.167Z,100.00
2019-03-12T03:46:47.733Z,100.00
2019-03-12T04:01:52.353Z,100.00
2019-03-12T04:16:54.984Z,100.00
2019-03-12T04:31:57.540Z,100.00
2019-03-12T04:47:03.398Z,100.00
2019-03-12T05:02:06.221Z,100.00
2019-03-12T05:17:09.775Z,100.00
2019-03-12T05:32:12.710Z,100.00
2019-03-12T05:47:15.289Z,100.00
2019-03-12T06:02:17.843Z,100.00
2019-03-12T06:17:20.807Z,100.00
2019-03-12T06:32:35.286Z,100.00
2019-03-12T06:47:48.553Z,100.00
2019-03-12T07:03:01.825Z,100.00
2019-03-12T07:18:07.992Z,100.00
2019-03-12T07:33:16.553Z,100.00
2019-03-12T07:48:26.662Z,100.00
2019-03-12T08:03:36.885Z,100.00
2019-03-12T08:18:42.334Z,100.00
2019-03-12T08:33:55.571Z,100.00
2019-03-12T08:49:14.806Z,100.00
2019-03-12T09:04:23.984Z,100.00
2019-03-12T09:19:30.745Z,100.00
2019-03-12T09:34:40.999Z,100.00
2019-03-12T09:49:47.032Z,96.11
2019-03-12T10:04:57.208Z,95.99
2019-03-12T10:20:01.777Z,96.03
2019-03-12T10:35:08.466Z,92.96
2019-03-12T10:50:11.258Z,94.56
2019-03-12T11:05:17.609Z,96.44
2019-03-12T11:20:24.092Z,99.59
2019-03-12T11:35:26.666Z,100.00
2019-03-12T11:50:29.221Z,97.50
2019-03-12T12:05:32.606Z,100.00
2019-03-12T12:20:35.292Z,98.76
2019-03-12T12:35:37.831Z,100.00
2019-03-12T12:50:40.374Z,100.00
2019-03-12T13:05:42.924Z,100.00
2019-03-12T13:20:45.622Z,100.00
2019-03-12T13:35:49.714Z,100.00
2019-03-12T13:50:52.439Z,100.00
2019-03-12T14:05:54.997Z,100.00
2019-03-12T14:21:02.875Z,100.00
2019-03-12T14:36:06.714Z,100.00
2019-03-12T15:06:46.782Z,97.09
2019-03-12T15:21:50.553Z,100.00
2019-03-12T15:36:53.167Z,96.75
2019-03-12T15:51:56.291Z,99.37
2019-03-12T16:07:01.625Z,100.00
2019-03-12T16:22:06.234Z,98.93
2019-03-12T16:37:08.828Z,100.00
2019-03-12T16:52:17.341Z,99.19
2019-03-12T17:07:19.918Z,100.00
2019-03-12T17:22:22.498Z,100.00
2019-03-12T17:37:26.336Z,100.00
2019-03-12T17:52:28.959Z,100.00
2019-03-12T18:07:32.386Z,100.00
2019-03-12T18:22:38.853Z,100.00
2019-03-12T18:37:40.689Z,100.00
2019-03-12T18:52:45.336Z,100.00
2019-03-12T19:07:47.980Z,100.00
2019-03-12T19:22:50.580Z,100.00
2019-03-12T19:37:53.362Z,100.00
2019-03-12T19:52:55.968Z,100.00
2019-03-12T20:07:59.898Z,100.00
2019-03-12T20:23:09.848Z,100.00
2019-03-12T20:38:31.856Z,100.00
2019-03-12T20:53:42.503Z,100.00
2019-03-12T21:40:18.986Z,100.00
2019-03-12T21:55:22.802Z,100.00
2019-03-12T22:10:25.373Z,100.00
2019-03-12T22:25:29.465Z,100.00
2019-03-12T22:40:32.837Z,100.00
2019-03-12T22:55:36.638Z,100.00
2019-03-12T23:10:40.778Z,100.00
2019-03-12T23:25:44.438Z,100.00
2019-03-12T23:40:47.154Z,98.40
2019-03-12T23:55:51.365Z,100.00
